createdAt,value
2023-02-08T00:00:23.363Z,11.15
2023-02-08T00:04:26.508Z,9.98
2023-02-08T00:08:29.620Z,9.77
2023-02-08T00:12:32.820Z,10.07
2023-02-08T00:16:37.301Z,11.45
2023-02-08T00:20:41.713Z,9.93
2023-02-08T00:24:44.987Z,10.35
2023-02-08T00:28:48.040Z,9.98
2023-02-08T00:32:52.563Z,9.75
2023-02-08T00:36:55.516Z,8.55
2023-02-08T00:40:59.416Z,9.75
2023-02-08T00:45:02.707Z,8.90
2023-02-08T00:49:07.378Z,9.07
2023-02-08T00:53:10.637Z,10.05
2023-02-08T00:57:14.263Z,10.98
2023-02-08T01:01:17.775Z,12.13
2023-02-08T01:05:22.482Z,11.02
2023-02-08T01:09:25.820Z,9.45
2023-02-08T01:13:29.153Z,10.27
2023-02-08T01:17:32.328Z,10.85
2023-02-08T01:21:38.603Z,9.23
2023-02-08T01:25:42.833Z,11.90
2023-02-08T01:29:45.872Z,9.15
2023-02-08T01:33:49.693Z,9.48
2023-02-08T01:37:54.014Z,11.20
2023-02-08T01:41:57.176Z,10.60
2023-02-08T01:46:00.796Z,8.15
2023-02-08T01:50:04.053Z,10.70
2023-02-08T01:54:12.219Z,12.23
2023-02-08T01:58:16.407Z,11.93
2023-02-08T02:02:22.617Z,12.07
2023-02-08T02:06:30.182Z,7.88
2023-02-08T02:10:38.838Z,12.27
2023-02-08T02:14:44.046Z,9.02
2023-02-08T02:18:47.245Z,8.15
2023-02-08T02:23:32.161Z,9.13
2023-02-08T02:28:04.695Z,7.97
2023-02-08T02:32:32.069Z,9.07
2023-02-08T02:36:44.076Z,10.82
2023-02-08T02:40:54.762Z,7.90
2023-02-08T02:45:08.604Z,6.32
2023-02-08T02:49:18.916Z,7.85
2023-02-08T02:53:28.490Z,6.00
2023-02-08T02:57:33.867Z,7.90
2023-02-08T03:01:37.707Z,7.70
2023-02-08T03:05:42.580Z,7.88
2023-02-08T03:10:01.491Z,7.07
2023-02-08T03:14:17.612Z,7.43
2023-02-08T03:18:31.486Z,9.02
2023-02-08T03:22:46.603Z,9.38
2023-02-08T03:26:56.993Z,6.05
2023-02-08T03:31:06.504Z,7.18
2023-02-08T03:35:17.091Z,7.13
2023-02-08T03:39:27.626Z,8.45
2023-02-08T03:43:35.436Z,9.00
2023-02-08T03:47:42.169Z,8.52
2023-02-08T03:51:47.074Z,7.95
2023-02-08T03:55:56.953Z,9.60
2023-02-08T04:00:06.897Z,8.90
2023-02-08T04:04:10.849Z,8.93
2023-02-08T04:08:15.050Z,9.55
2023-02-08T04:12:19.749Z,11.40
2023-02-08T04:16:22.962Z,10.07
2023-02-08T04:20:26.213Z,10.35
2023-02-08T04:24:29.483Z,7.60
2023-02-08T04:28:34.201Z,10.10
2023-02-08T04:32:37.280Z,7.95
2023-02-08T04:36:40.731Z,8.38
2023-02-08T04:40:44.100Z,10.48
2023-02-08T04:44:48.662Z,8.60
2023-02-08T04:48:52.053Z,9.75
2023-02-08T04:52:55.216Z,8.40
2023-02-08T04:56:59.893Z,8.77
2023-02-08T05:01:07.737Z,9.77
2023-02-08T05:05:11.244Z,8.65
2023-02-08T05:09:15.201Z,9.93
2023-02-08T05:13:18.770Z,8.93
2023-02-08T05:17:23.711Z,8.95
2023-02-08T05:21:26.997Z,12.40
2023-02-08T05:25:30.381Z,7.78
2023-02-08T05:29:33.532Z,8.25
2023-02-08T05:33:38.654Z,11.27
2023-02-08T05:37:41.843Z,10.50
2023-02-08T05:41:45.296Z,7.22
2023-02-08T05:45:49.524Z,9.65
2023-02-08T05:49:54.346Z,11.00
2023-02-08T05:53:57.219Z,7.35
2023-02-08T05:58:00.607Z,10.05
2023-02-08T06:02:03.719Z,8.77
2023-02-08T06:06:11.269Z,11.02
2023-02-08T06:10:14.579Z,11.68
2023-02-08T06:14:17.901Z,10.43
2023-02-08T06:18:20.784Z,9.15
2023-02-08T06:22:26.160Z,9.05
2023-02-08T06:26:29.206Z,12.38
2023-02-08T06:30:32.874Z,10.43
2023-02-08T06:34:35.852Z,7.43
2023-02-08T06:38:40.608Z,12.38
2023-02-08T06:42:44.428Z,8.90
2023-02-08T06:46:47.766Z,8.23
2023-02-08T06:50:53.977Z,9.90
2023-02-08T06:54:58.588Z,11.48
2023-02-08T06:59:01.829Z,11.15
2023-02-08T07:03:04.830Z,9.18
2023-02-08T07:07:08.435Z,10.38
2023-02-08T07:11:15.916Z,12.45
2023-02-08T07:15:18.940Z,10.18
2023-02-08T07:19:22.206Z,10.32
2023-02-08T07:23:25.552Z,11.63
2023-02-08T07:27:30.607Z,11.18
2023-02-08T07:31:33.904Z,11.38
2023-02-08T07:35:37.468Z,11.05
2023-02-08T07:39:40.610Z,12.73
2023-02-08T07:43:45.466Z,10.45
2023-02-08T07:47:49.076Z,13.07
2023-02-08T07:51:52.480Z,13.85
2023-02-08T07:55:55.580Z,11.32
2023-02-08T08:00:00.177Z,16.05
2023-02-08T08:04:03.589Z,13.20
2023-02-08T08:08:06.611Z,12.88
2023-02-08T08:12:09.979Z,12.88
2023-02-08T08:16:15.076Z,10.00
2023-02-08T08:20:19.094Z,11.07
2023-02-08T08:24:22.206Z,11.20
2023-02-08T08:28:26.096Z,15.02
2023-02-08T08:32:30.466Z,13.60
2023-02-08T08:36:34.591Z,13.00
2023-02-08T08:40:38.698Z,12.55
2023-02-08T08:44:42.527Z,13.70
2023-02-08T08:48:48.351Z,12.18
2023-02-08T08:52:51.628Z,13.10
2023-02-08T08:56:54.555Z,12.10
2023-02-08T09:00:58.792Z,11.93
2023-02-08T09:05:05.507Z,13.75
2023-02-08T09:09:09.028Z,12.77
2023-02-08T09:13:13.213Z,13.75
2023-02-08T09:17:16.627Z,11.40
2023-02-08T09:21:24.744Z,13.23
2023-02-08T09:25:28.469Z,12.27
2023-02-08T09:29:32.971Z,11.82
2023-02-08T09:33:35.849Z,12.50
2023-02-08T09:37:40.421Z,12.80
2023-02-08T09:42:11.739Z,12.85
2023-02-08T09:46:19.788Z,12.85
2023-02-08T09:50:32.693Z,16.17
2023-02-08T09:54:40.652Z,14.65
2023-02-08T09:58:46.361Z,12.57
2023-02-08T10:02:50.587Z,13.80
2023-02-08T10:06:54.176Z,11.85
2023-02-08T10:11:12.240Z,12.55
2023-02-08T10:15:26.148Z,12.73
2023-02-08T10:19:43.789Z,13.23
2023-02-08T10:24:06.863Z,12.93
2023-02-08T10:28:36.184Z,13.00
2023-02-08T10:32:51.708Z,10.75
2023-02-08T10:36:55.378Z,11.32
2023-02-08T10:41:00.912Z,10.55
2023-02-08T10:45:24.241Z,11.90
2023-02-08T10:49:38.429Z,11.95
2023-02-08T10:53:41.933Z,12.07
2023-02-08T10:57:45.791Z,13.05
2023-02-08T11:01:51.333Z,10.55
2023-02-08T11:05:55.336Z,10.68
2023-02-08T11:10:16.506Z,10.90
2023-02-08T11:14:24.188Z,10.05
2023-02-08T11:18:32.140Z,10.38
2023-02-08T11:22:35.800Z,8.82
2023-02-08T11:26:38.940Z,9.10
2023-02-08T11:30:42.344Z,9.43
2023-02-08T11:34:47.762Z,8.95
2023-02-08T11:38:50.870Z,10.73
2023-02-08T11:42:54.805Z,8.45
2023-02-08T11:47:00.723Z,9.35
2023-02-08T11:51:06.048Z,8.00
2023-02-08T11:55:25.855Z,8.07
2023-02-08T11:59:29.819Z,7.45
2023-02-08T12:03:37.811Z,8.75
2023-02-08T12:07:58.402Z,8.18
2023-02-08T12:12:14.567Z,7.22
2023-02-08T12:16:36.225Z,8.13
2023-02-08T12:20:42.457Z,7.40
2023-02-08T12:24:51.975Z,6.80
2023-02-08T12:29:18.922Z,6.25
2023-02-08T12:33:41.459Z,7.13
2023-02-08T12:38:45.028Z,7.47
2023-02-08T12:43:09.085Z,6.47
2023-02-08T12:47:32.608Z,6.88
2023-02-08T12:51:43.873Z,6.25
2023-02-08T12:55:50.037Z,6.20
2023-02-08T12:59:59.316Z,3.80
2023-02-08T13:04:07.835Z,4.97
2023-02-08T13:08:19.919Z,4.57
2023-02-08T13:12:28.404Z,4.85
2023-02-08T13:16:39.393Z,5.13
2023-02-08T13:20:46.414Z,4.82
2023-02-08T13:25:05.002Z,5.05
2023-02-08T13:29:19.193Z,4.38
2023-02-08T13:33:32.815Z,4.15
2023-02-08T13:37:37.263Z,4.82
2023-02-08T13:41:50.304Z,4.32
2023-02-08T13:45:56.511Z,4.20
2023-02-08T13:50:06.167Z,4.43
2023-02-08T13:54:13.682Z,4.30
2023-02-08T13:58:39.807Z,3.67
2023-02-08T14:03:00.060Z,5.28
2023-02-08T14:07:24.628Z,4.15
2023-02-08T14:11:40.803Z,4.45
2023-02-08T14:15:44.201Z,3.45
2023-02-08T14:19:57.350Z,3.78
2023-02-08T14:24:07.519Z,4.82
2023-02-08T14:28:27.199Z,4.40
2023-02-08T14:32:32.677Z,3.85
2023-02-08T14:36:37.440Z,3.17
2023-02-08T14:40:53.292Z,4.03
2023-02-08T14:45:01.345Z,4.40
2023-02-08T14:49:07.025Z,2.60
2023-02-08T14:53:31.169Z,3.47
2023-02-08T14:57:38.152Z,3.40
2023-02-08T15:01:44.375Z,3.00
2023-02-08T15:06:04.979Z,2.90
2023-02-08T15:10:14.387Z,2.78
2023-02-08T15:14:22.567Z,3.15
2023-02-08T15:18:32.560Z,3.80
2023-02-08T15:22:38.396Z,3.83
2023-02-08T15:26:46.082Z,2.63
2023-02-08T15:30:58.193Z,3.33
2023-02-08T15:35:04.020Z,3.53
2023-02-08T15:39:18.119Z,6.57
2023-02-08T15:43:23.353Z,4.07
2023-02-08T15:47:31.894Z,4.50
2023-02-08T15:51:37.742Z,4.70
2023-02-08T15:55:48.455Z,5.07
2023-02-08T15:59:51.898Z,4.00
2023-02-08T16:03:59.892Z,6.38
2023-02-08T16:08:04.839Z,3.72
2023-02-08T16:12:15.401Z,4.18
2023-02-08T16:16:22.086Z,4.38
2023-02-08T16:20:42.191Z,4.20
2023-02-08T16:24:47.243Z,4.32
2023-02-08T16:28:56.322Z,4.07
2023-02-08T16:33:00.100Z,4.53
2023-02-08T16:37:06.478Z,4.15
2023-02-08T16:41:14.986Z,4.70
2023-02-08T16:45:20.598Z,4.88
2023-02-08T16:49:24.382Z,4.45
2023-02-08T16:53:41.458Z,5.07
2023-02-08T16:57:48.318Z,4.15
2023-02-08T17:01:51.600Z,4.20
2023-02-08T17:05:54.882Z,4.47
2023-02-08T17:09:59.749Z,4.97
2023-02-08T17:14:03.191Z,6.47
2023-02-08T17:18:06.333Z,6.20
2023-02-08T17:22:09.453Z,6.55
2023-02-08T17:26:17.813Z,5.10
2023-02-08T17:30:24.380Z,6.90
2023-02-08T17:34:27.999Z,5.63
2023-02-08T17:38:31.051Z,5.45
2023-02-08T17:42:35.628Z,6.22
2023-02-08T17:46:40.458Z,6.60
2023-02-08T17:50:48.125Z,5.13
2023-02-08T17:54:51.198Z,6.97
2023-02-08T17:58:57.000Z,6.28
2023-02-08T18:03:01.090Z,7.15
2023-02-08T18:07:05.056Z,7.10
2023-02-08T18:11:12.897Z,6.22
2023-02-08T18:15:19.852Z,5.60
2023-02-08T18:19:23.846Z,5.68
2023-02-08T18:23:30.974Z,5.55
2023-02-08T18:27:38.233Z,7.47
2023-02-08T18:31:42.965Z,6.13
2023-02-08T18:35:49.929Z,6.50
2023-02-08T18:39:54.560Z,7.97
2023-02-08T18:43:59.394Z,7.20
2023-02-08T18:48:04.251Z,6.93
2023-02-08T18:52:08.108Z,8.50
2023-02-08T18:56:13.622Z,7.45
2023-02-08T19:00:17.655Z,7.82
2023-02-08T19:04:22.285Z,6.90
2023-02-08T19:08:25.381Z,7.40
2023-02-08T19:12:28.291Z,8.07
2023-02-08T19:16:32.945Z,6.88
2023-02-08T19:20:40.365Z,7.07
2023-02-08T19:24:43.769Z,6.38
2023-02-08T19:28:47.290Z,8.40
2023-02-08T19:32:51.116Z,7.15
2023-02-08T19:36:56.423Z,7.13
2023-02-08T19:40:59.653Z,6.22
2023-02-08T19:45:02.595Z,7.80
2023-02-08T19:49:07.400Z,6.35
2023-02-08T19:53:12.290Z,6.22
2023-02-08T19:57:16.233Z,7.15
2023-02-08T20:01:21.277Z,7.40
2023-02-08T20:05:24.452Z,6.35
2023-02-08T20:09:28.857Z,6.78
2023-02-08T20:13:32.287Z,6.40
2023-02-08T20:17:35.413Z,5.55
2023-02-08T20:21:40.268Z,6.95
2023-02-08T20:25:45.354Z,5.40
2023-02-08T20:29:48.908Z,4.68
2023-02-08T20:33:52.967Z,7.43
2023-02-08T20:37:56.483Z,6.25
2023-02-08T20:42:01.322Z,6.53
2023-02-08T20:46:07.398Z,6.35
2023-02-08T20:50:18.754Z,7.15
2023-02-08T20:54:24.577Z,7.00
2023-02-08T20:58:29.176Z,6.85
2023-02-08T21:02:32.706Z,6.43
2023-02-08T21:06:37.732Z,6.68
2023-02-08T21:10:40.917Z,6.43
2023-02-08T21:14:45.357Z,5.97
2023-02-08T21:18:48.731Z,5.32
2023-02-08T21:22:51.936Z,4.97
2023-02-08T21:26:56.943Z,5.47
2023-02-08T21:31:03.469Z,5.90
2023-02-08T21:35:07.989Z,5.47
2023-02-08T21:39:11.829Z,5.22
2023-02-08T21:43:15.094Z,5.22
2023-02-08T21:47:19.746Z,5.93
2023-02-08T21:51:41.329Z,5.03
2023-02-08T21:55:47.615Z,6.47
2023-02-08T21:59:53.110Z,4.40
2023-02-08T22:03:57.555Z,4.85
2023-02-08T22:08:01.007Z,4.70
2023-02-08T22:12:06.341Z,4.45
2023-02-08T22:16:10.647Z,5.47
2023-02-08T22:20:16.740Z,4.63
2023-02-08T22:24:20.044Z,4.22
2023-02-08T22:28:23.571Z,5.15
2023-02-08T22:32:26.824Z,5.32
2023-02-08T22:36:31.474Z,4.03
2023-02-08T22:40:34.907Z,5.10
2023-02-08T22:44:39.078Z,3.78
2023-02-08T22:48:42.533Z,3.70
2023-02-08T22:52:48.887Z,3.90
2023-02-08T22:56:52.452Z,3.65
2023-02-08T23:00:55.351Z,4.60
2023-02-08T23:04:58.782Z,4.15
2023-02-08T23:09:04.538Z,4.88
2023-02-08T23:13:09.110Z,3.50
2023-02-08T23:22:38.101Z,3.63
2023-02-08T23:26:42.684Z,4.20
2023-02-08T23:30:46.890Z,3.35
2023-02-08T23:34:50.380Z,4.20
2023-02-08T23:38:54.083Z,4.63
2023-02-08T23:42:58.720Z,5.32
2023-02-08T23:47:02.239Z,4.30
2023-02-08T23:51:08.129Z,4.97
2023-02-08T23:55:11.346Z,4.88
2023-02-08T23:59:15.830Z,3.88
